Arabi, Louisiana
Current Conditions -  °F | °C
As of 11:55 AM on Saturday 20 Dec 2014 (Local Time) from KVSH Reporting Station
Overcast Overcast  
Wind Chill: 54°   Ceiling: 1000
Heat Index: 54°   Visibility: 10mi
Dew Point: 45°   Wind: 8mph
Humidity: 72%   Direction: 20°NNE
Pressure: 30.14"   Gusts: NA
Location:  29.95°N, 90.01°W
Report Text: KVSH 201755Z AUTO 02007KT 10SM OVC010 12/07 A3014 RMK AO1 10120 20090 57003
Loading
Personal Weather Stations






























Interactive Weather Map New forecast layout! Learn more

10-Day Weather Forecast

Advertisements
Track Severe Weather on mobile